sensor_id;sensor_type;location;lat;lon;timestamp;P1;durP1;ratioP1;P2;durP2;ratioP2
23402;SDS011;11874;48.228;11.684;2022-11-15T00:00:47;7.10;;;6.07;;
23402;SDS011;11874;48.228;11.684;2022-11-15T00:03:15;7.85;;;5.95;;
23402;SDS011;11874;48.228;11.684;2022-11-15T00:05:44;7.40;;;5.47;;
23402;SDS011;11874;48.228;11.684;2022-11-15T00:08:12;9.82;;;6.20;;
23402;SDS011;11874;48.228;11.684;2022-11-15T00:10:42;9.05;;;6.03;;
23402;SDS011;11874;48.228;11.684;2022-11-15T00:13:21;9.57;;;6.22;;
23402;SDS011;11874;48.228;11.684;2022-11-15T00:15:49;9.38;;;7.30;;
23402;SDS011;11874;48.228;11.684;2022-11-15T00:18:17;8.55;;;6.00;;
23402;SDS011;11874;48.228;11.684;2022-11-15T00:20:45;7.50;;;6.53;;
23402;SDS011;11874;48.228;11.684;2022-11-15T00:23:13;9.23;;;6.20;;
23402;SDS011;11874;48.228;11.684;2022-11-15T00:25:43;9.38;;;6.50;;
23402;SDS011;11874;48.228;11.684;2022-11-15T00:28:11;6.78;;;5.53;;
23402;SDS011;11874;48.228;11.684;2022-11-15T00:30:39;9.80;;;6.53;;
23402;SDS011;11874;48.228;11.684;2022-11-15T00:33:08;8.55;;;6.07;;
23402;SDS011;11874;48.228;11.684;2022-11-15T00:35:36;9.13;;;6.75;;
23402;SDS011;11874;48.228;11.684;2022-11-15T00:38:04;8.40;;;6.05;;
23402;SDS011;11874;48.228;11.684;2022-11-15T00:40:32;8.00;;;6.35;;
23402;SDS011;11874;48.228;11.684;2022-11-15T00:43:01;9.30;;;7.00;;
23402;SDS011;11874;48.228;11.684;2022-11-15T00:45:29;8.23;;;6.38;;
23402;SDS011;11874;48.228;11.684;2022-11-15T00:47:57;9.98;;;6.70;;
23402;SDS011;11874;48.228;11.684;2022-11-15T00:50:25;9.18;;;6.88;;
23402;SDS011;11874;48.228;11.684;2022-11-15T00:52:53;11.40;;;6.80;;
23402;SDS011;11874;48.228;11.684;2022-11-15T00:55:20;9.15;;;6.75;;
23402;SDS011;11874;48.228;11.684;2022-11-15T00:57:48;9.95;;;7.07;;
23402;SDS011;11874;48.228;11.684;2022-11-15T01:00:18;10.52;;;7.18;;
23402;SDS011;11874;48.228;11.684;2022-11-15T01:02:45;10.93;;;7.57;;
23402;SDS011;11874;48.228;11.684;2022-11-15T01:05:13;9.27;;;6.80;;
23402;SDS011;11874;48.228;11.684;2022-11-15T01:07:41;10.90;;;7.38;;
23402;SDS011;11874;48.228;11.684;2022-11-15T01:10:09;10.00;;;7.28;;
23402;SDS011;11874;48.228;11.684;2022-11-15T01:12:37;9.60;;;7.30;;
23402;SDS011;11874;48.228;11.684;2022-11-15T01:15:05;9.00;;;7.47;;
23402;SDS011;11874;48.228;11.684;2022-11-15T01:17:35;9.95;;;7.05;;
23402;SDS011;11874;48.228;11.684;2022-11-15T01:20:03;9.30;;;7.22;;
23402;SDS011;11874;48.228;11.684;2022-11-15T01:22:31;9.35;;;7.50;;
23402;SDS011;11874;48.228;11.684;2022-11-15T01:24:59;9.52;;;7.43;;
23402;SDS011;11874;48.228;11.684;2022-11-15T01:27:27;10.85;;;7.85;;
23402;SDS011;11874;48.228;11.684;2022-11-15T01:29:55;9.23;;;7.05;;
23402;SDS011;11874;48.228;11.684;2022-11-15T01:32:22;10.50;;;7.43;;
23402;SDS011;11874;48.228;11.684;2022-11-15T01:34:52;8.50;;;6.88;;
23402;SDS011;11874;48.228;11.684;2022-11-15T01:37:20;10.30;;;7.10;;
23402;SDS011;11874;48.228;11.684;2022-11-15T01:39:47;10.95;;;7.78;;
23402;SDS011;11874;48.228;11.684;2022-11-15T01:42:15;9.00;;;7.35;;
23402;SDS011;11874;48.228;11.684;2022-11-15T01:44:46;9.70;;;6.82;;
23402;SDS011;11874;48.228;11.684;2022-11-15T01:47:16;8.48;;;6.25;;
23402;SDS011;11874;48.228;11.684;2022-11-15T01:49:49;9.32;;;6.72;;
23402;SDS011;11874;48.228;11.684;2022-11-15T01:52:23;10.25;;;7.07;;
23402;SDS011;11874;48.228;11.684;2022-11-15T01:54:55;9.02;;;7.28;;
23402;SDS011;11874;48.228;11.684;2022-11-15T01:57:28;10.73;;;7.43;;
23402;SDS011;11874;48.228;11.684;2022-11-15T01:59:56;8.73;;;6.68;;
23402;SDS011;11874;48.228;11.684;2022-11-15T02:02:26;8.57;;;6.93;;
23402;SDS011;11874;48.228;11.684;2022-11-15T02:04:55;9.48;;;7.20;;
23402;SDS011;11874;48.228;11.684;2022-11-15T02:07:23;8.40;;;6.68;;
23402;SDS011;11874;48.228;11.684;2022-11-15T02:09:51;9.15;;;6.75;;
23402;SDS011;11874;48.228;11.684;2022-11-15T02:12:22;8.98;;;6.57;;
23402;SDS011;11874;48.228;11.684;2022-11-15T02:14:50;8.68;;;6.55;;
23402;SDS011;11874;48.228;11.684;2022-11-15T02:17:31;9.30;;;6.95;;
23402;SDS011;11874;48.228;11.684;2022-11-15T02:26:41;8.93;;;6.35;;
23402;SDS011;11874;48.228;11.684;2022-11-15T02:29:40;8.82;;;6.25;;
23402;SDS011;11874;48.228;11.684;2022-11-15T02:32:26;10.20;;;6.88;;
23402;SDS011;11874;48.228;11.684;2022-11-15T02:35:03;9.90;;;7.45;;
23402;SDS011;11874;48.228;11.684;2022-11-15T02:37:42;8.45;;;7.10;;
23402;SDS011;11874;48.228;11.684;2022-11-15T02:40:17;10.13;;;6.78;;
23402;SDS011;11874;48.228;11.684;2022-11-15T02:42:53;9.73;;;6.63;;
23402;SDS011;11874;48.228;11.684;2022-11-15T02:45:42;8.57;;;6.65;;
23402;SDS011;11874;48.228;11.684;2022-11-15T02:48:16;7.35;;;6.32;;
23402;SDS011;11874;48.228;11.684;2022-11-15T02:50:46;9.70;;;6.55;;
23402;SDS011;11874;48.228;11.684;2022-11-15T02:53:15;7.63;;;6.43;;
23402;SDS011;11874;48.228;11.684;2022-11-15T02:55:43;8.52;;;7.13;;
23402;SDS011;11874;48.228;11.684;2022-11-15T03:01:09;9.95;;;7.20;;
23402;SDS011;11874;48.228;11.684;2022-11-15T03:03:50;9.02;;;6.68;;
23402;SDS011;11874;48.228;11.684;2022-11-15T03:06:28;7.38;;;5.53;;
23402;SDS011;11874;48.228;11.684;2022-11-15T03:09:04;7.78;;;5.90;;
23402;SDS011;11874;48.228;11.684;2022-11-15T03:11:35;6.72;;;5.22;;
23402;SDS011;11874;48.228;11.684;2022-11-15T03:14:08;6.70;;;5.88;;
23402;SDS011;11874;48.228;11.684;2022-11-15T03:16:46;10.43;;;6.68;;
23402;SDS011;11874;48.228;11.684;2022-11-15T03:19:21;12.30;;;7.40;;
23402;SDS011;11874;48.228;11.684;2022-11-15T03:21:57;17.30;;;9.10;;
23402;SDS011;11874;48.228;11.684;2022-11-15T03:24:29;14.85;;;8.77;;
23402;SDS011;11874;48.228;11.684;2022-11-15T03:27:02;15.73;;;9.52;;
23402;SDS011;11874;48.228;11.684;2022-11-15T03:29:34;14.73;;;9.45;;
23402;SDS011;11874;48.228;11.684;2022-11-15T03:34:37;14.75;;;8.43;;
23402;SDS011;11874;48.228;11.684;2022-11-15T03:37:08;12.32;;;7.60;;
23402;SDS011;11874;48.228;11.684;2022-11-15T03:39:39;11.73;;;7.35;;
23402;SDS011;11874;48.228;11.684;2022-11-15T03:42:09;11.68;;;6.78;;
23402;SDS011;11874;48.228;11.684;2022-11-15T03:44:48;8.32;;;6.55;;
23402;SDS011;11874;48.228;11.684;2022-11-15T03:47:20;8.15;;;6.07;;
23402;SDS011;11874;48.228;11.684;2022-11-15T03:49:55;7.22;;;5.68;;
23402;SDS011;11874;48.228;11.684;2022-11-15T03:52:29;8.50;;;6.28;;
23402;SDS011;11874;48.228;11.684;2022-11-15T03:54:59;7.50;;;5.80;;
23402;SDS011;11874;48.228;11.684;2022-11-15T03:57:30;7.22;;;5.60;;
23402;SDS011;11874;48.228;11.684;2022-11-15T03:59:58;7.65;;;5.85;;
23402;SDS011;11874;48.228;11.684;2022-11-15T04:02:26;8.23;;;5.18;;
23402;SDS011;11874;48.228;11.684;2022-11-15T04:04:55;6.40;;;4.90;;
23402;SDS011;11874;48.228;11.684;2022-11-15T04:07:23;5.55;;;4.38;;
23402;SDS011;11874;48.228;11.684;2022-11-15T04:09:51;7.47;;;4.50;;
23402;SDS011;11874;48.228;11.684;2022-11-15T04:12:32;6.05;;;4.50;;
23402;SDS011;11874;48.228;11.684;2022-11-15T04:15:02;5.15;;;4.32;;
23402;SDS011;11874;48.228;11.684;2022-11-15T04:17:34;6.50;;;4.30;;
23402;SDS011;11874;48.228;11.684;2022-11-15T04:20:06;4.68;;;4.00;;
23402;SDS011;11874;48.228;11.684;2022-11-15T04:22:53;5.32;;;3.72;;
23402;SDS011;11874;48.228;11.684;2022-11-15T04:25:39;4.80;;;3.67;;
23402;SDS011;11874;48.228;11.684;2022-11-15T04:28:07;4.93;;;3.70;;
23402;SDS011;11874;48.228;11.684;2022-11-15T04:30:35;4.88;;;3.97;;
23402;SDS011;11874;48.228;11.684;2022-11-15T04:33:03;4.82;;;3.70;;
23402;SDS011;11874;48.228;11.684;2022-11-15T04:35:32;7.55;;;3.97;;
23402;SDS011;11874;48.228;11.684;2022-11-15T04:38:00;4.70;;;4.10;;
23402;SDS011;11874;48.228;11.684;2022-11-15T04:40:29;4.88;;;3.92;;
23402;SDS011;11874;48.228;11.684;2022-11-15T04:42:56;7.25;;;4.20;;
23402;SDS011;11874;48.228;11.684;2022-11-15T04:45:29;5.18;;;4.15;;
23402;SDS011;11874;48.228;11.684;2022-11-15T04:47:57;4.72;;;4.18;;
23402;SDS011;11874;48.228;11.684;2022-11-15T04:50:25;6.72;;;4.10;;
23402;SDS011;11874;48.228;11.684;2022-11-15T04:52:54;5.88;;;3.47;;
23402;SDS011;11874;48.228;11.684;2022-11-15T04:55:22;5.68;;;4.32;;
23402;SDS011;11874;48.228;11.684;2022-11-15T04:57:56;6.10;;;5.13;;
23402;SDS011;11874;48.228;11.684;2022-11-15T05:00:26;4.68;;;3.85;;
23402;SDS011;11874;48.228;11.684;2022-11-15T05:02:55;4.35;;;3.90;;
23402;SDS011;11874;48.228;11.684;2022-11-15T05:05:40;8.15;;;4.07;;
23402;SDS011;11874;48.228;11.684;2022-11-15T05:08:10;4.15;;;3.53;;
23402;SDS011;11874;48.228;11.684;2022-11-15T05:10:37;4.45;;;4.03;;
23402;SDS011;11874;48.228;11.684;2022-11-15T05:13:05;4.80;;;3.75;;
23402;SDS011;11874;48.228;11.684;2022-11-15T05:15:33;5.05;;;3.95;;
23402;SDS011;11874;48.228;11.684;2022-11-15T05:18:01;5.68;;;3.95;;
23402;SDS011;11874;48.228;11.684;2022-11-15T05:20:29;5.95;;;4.10;;
23402;SDS011;11874;48.228;11.684;2022-11-15T05:22:57;4.88;;;3.92;;
23402;SDS011;11874;48.228;11.684;2022-11-15T05:25:26;4.72;;;4.22;;
23402;SDS011;11874;48.228;11.684;2022-11-15T05:27:54;5.13;;;4.00;;
23402;SDS011;11874;48.228;11.684;2022-11-15T05:30:22;6.80;;;4.18;;
23402;SDS011;11874;48.228;11.684;2022-11-15T05:32:50;5.53;;;4.68;;
23402;SDS011;11874;48.228;11.684;2022-11-15T05:35:18;6.35;;;4.80;;
23402;SDS011;11874;48.228;11.684;2022-11-15T05:37:53;8.13;;;4.70;;
23402;SDS011;11874;48.228;11.684;2022-11-15T05:40:21;9.57;;;4.80;;
23402;SDS011;11874;48.228;11.684;2022-11-15T05:42:50;5.75;;;4.50;;
23402;SDS011;11874;48.228;11.684;2022-11-15T05:45:18;4.90;;;3.90;;
23402;SDS011;11874;48.228;11.684;2022-11-15T05:47:52;5.45;;;4.07;;
23402;SDS011;11874;48.228;11.684;2022-11-15T05:50:22;5.72;;;4.20;;
23402;SDS011;11874;48.228;11.684;2022-11-15T05:52:50;8.50;;;4.30;;
23402;SDS011;11874;48.228;11.684;2022-11-15T05:55:19;8.20;;;4.70;;
23402;SDS011;11874;48.228;11.684;2022-11-15T05:57:47;7.57;;;4.55;;
23402;SDS011;11874;48.228;11.684;2022-11-15T06:00:16;10.07;;;4.38;;
23402;SDS011;11874;48.228;11.684;2022-11-15T06:02:44;6.72;;;4.70;;
23402;SDS011;11874;48.228;11.684;2022-11-15T06:05:12;10.52;;;4.82;;
23402;SDS011;11874;48.228;11.684;2022-11-15T06:07:40;6.25;;;4.53;;
23402;SDS011;11874;48.228;11.684;2022-11-15T06:10:08;6.93;;;4.32;;
23402;SDS011;11874;48.228;11.684;2022-11-15T06:12:36;6.85;;;4.32;;
23402;SDS011;11874;48.228;11.684;2022-11-15T06:15:04;8.13;;;4.38;;
23402;SDS011;11874;48.228;11.684;2022-11-15T06:17:34;6.47;;;4.20;;
23402;SDS011;11874;48.228;11.684;2022-11-15T06:20:02;7.65;;;4.47;;
23402;SDS011;11874;48.228;11.684;2022-11-15T06:22:30;7.43;;;4.97;;
23402;SDS011;11874;48.228;11.684;2022-11-15T06:24:58;7.90;;;5.03;;
23402;SDS011;11874;48.228;11.684;2022-11-15T06:27:30;8.48;;;5.38;;
23402;SDS011;11874;48.228;11.684;2022-11-15T06:29:58;5.47;;;4.85;;
23402;SDS011;11874;48.228;11.684;2022-11-15T06:32:26;7.97;;;4.88;;
23402;SDS011;11874;48.228;11.684;2022-11-15T06:34:57;7.40;;;4.38;;
23402;SDS011;11874;48.228;11.684;2022-11-15T06:37:25;9.05;;;4.88;;
23402;SDS011;11874;48.228;11.684;2022-11-15T06:39:52;12.52;;;4.63;;
23402;SDS011;11874;48.228;11.684;2022-11-15T06:42:20;12.48;;;5.10;;
23402;SDS011;11874;48.228;11.684;2022-11-15T06:44:48;9.00;;;4.82;;
23402;SDS011;11874;48.228;11.684;2022-11-15T06:47:16;8.38;;;4.68;;
23402;SDS011;11874;48.228;11.684;2022-11-15T06:49:44;8.02;;;4.72;;
23402;SDS011;11874;48.228;11.684;2022-11-15T06:52:13;7.05;;;4.70;;
23402;SDS011;11874;48.228;11.684;2022-11-15T06:54:41;7.35;;;4.68;;
23402;SDS011;11874;48.228;11.684;2022-11-15T06:57:08;7.60;;;5.03;;
23402;SDS011;11874;48.228;11.684;2022-11-15T06:59:36;8.43;;;4.88;;
23402;SDS011;11874;48.228;11.684;2022-11-15T07:02:06;8.10;;;4.20;;
23402;SDS011;11874;48.228;11.684;2022-11-15T07:04:38;7.80;;;5.40;;
23402;SDS011;11874;48.228;11.684;2022-11-15T07:07:06;8.88;;;4.50;;
23402;SDS011;11874;48.228;11.684;2022-11-15T07:09:35;7.70;;;5.05;;
23402;SDS011;11874;48.228;11.684;2022-11-15T07:12:03;7.35;;;4.45;;
23402;SDS011;11874;48.228;11.684;2022-11-15T07:14:33;6.43;;;4.20;;
23402;SDS011;11874;48.228;11.684;2022-11-15T07:17:02;7.88;;;4.68;;
23402;SDS011;11874;48.228;11.684;2022-11-15T07:19:30;7.18;;;4.30;;
23402;SDS011;11874;48.228;11.684;2022-11-15T07:21:58;5.45;;;4.05;;
23402;SDS011;11874;48.228;11.684;2022-11-15T07:24:26;7.70;;;4.20;;
23402;SDS011;11874;48.228;11.684;2022-11-15T07:26:56;5.18;;;4.00;;
23402;SDS011;11874;48.228;11.684;2022-11-15T07:29:25;7.15;;;4.25;;
23402;SDS011;11874;48.228;11.684;2022-11-15T07:31:53;9.35;;;4.97;;
23402;SDS011;11874;48.228;11.684;2022-11-15T07:34:21;5.97;;;4.28;;
23402;SDS011;11874;48.228;11.684;2022-11-15T07:36:49;6.65;;;4.25;;
23402;SDS011;11874;48.228;11.684;2022-11-15T07:39:17;7.75;;;5.22;;
23402;SDS011;11874;48.228;11.684;2022-11-15T07:41:45;7.93;;;5.05;;
23402;SDS011;11874;48.228;11.684;2022-11-15T07:44:15;6.70;;;4.72;;
23402;SDS011;11874;48.228;11.684;2022-11-15T07:46:43;8.43;;;4.85;;
23402;SDS011;11874;48.228;11.684;2022-11-15T07:49:11;5.63;;;4.90;;
23402;SDS011;11874;48.228;11.684;2022-11-15T07:51:39;9.93;;;5.10;;
23402;SDS011;11874;48.228;11.684;2022-11-15T07:54:06;5.43;;;4.47;;
23402;SDS011;11874;48.228;11.684;2022-11-15T07:56:34;7.75;;;4.50;;
23402;SDS011;11874;48.228;11.684;2022-11-15T07:59:02;6.10;;;4.18;;
23402;SDS011;11874;48.228;11.684;2022-11-15T08:01:31;5.70;;;4.28;;
23402;SDS011;11874;48.228;11.684;2022-11-15T08:03:59;5.43;;;4.30;;
23402;SDS011;11874;48.228;11.684;2022-11-15T08:06:27;6.60;;;4.55;;
23402;SDS011;11874;48.228;11.684;2022-11-15T08:08:55;8.88;;;5.05;;
23402;SDS011;11874;48.228;11.684;2022-11-15T08:11:23;5.95;;;4.05;;
23402;SDS011;11874;48.228;11.684;2022-11-15T08:13:51;4.82;;;3.72;;
23402;SDS011;11874;48.228;11.684;2022-11-15T08:16:18;9.77;;;4.32;;
23402;SDS011;11874;48.228;11.684;2022-11-15T08:18:48;5.75;;;4.38;;
23402;SDS011;11874;48.228;11.684;2022-11-15T08:21:17;6.03;;;4.10;;
23402;SDS011;11874;48.228;11.684;2022-11-15T08:23:47;6.63;;;4.40;;
23402;SDS011;11874;48.228;11.684;2022-11-15T08:26:15;9.35;;;4.88;;
23402;SDS011;11874;48.228;11.684;2022-11-15T08:28:43;6.85;;;3.97;;
23402;SDS011;11874;48.228;11.684;2022-11-15T08:31:13;4.75;;;3.83;;
23402;SDS011;11874;48.228;11.684;2022-11-15T08:33:42;6.13;;;4.68;;
23402;SDS011;11874;48.228;11.684;2022-11-15T08:36:13;7.88;;;4.15;;
23402;SDS011;11874;48.228;11.684;2022-11-15T08:38:42;6.07;;;4.00;;
23402;SDS011;11874;48.228;11.684;2022-11-15T08:41:12;7.45;;;3.75;;
23402;SDS011;11874;48.228;11.684;2022-11-15T08:43:43;8.77;;;4.50;;
23402;SDS011;11874;48.228;11.684;2022-11-15T08:46:11;7.57;;;4.30;;
23402;SDS011;11874;48.228;11.684;2022-11-15T08:48:40;6.40;;;4.55;;
23402;SDS011;11874;48.228;11.684;2022-11-15T08:51:08;7.15;;;4.78;;
23402;SDS011;11874;48.228;11.684;2022-11-15T08:53:37;7.63;;;4.40;;
23402;SDS011;11874;48.228;11.684;2022-11-15T08:56:06;5.97;;;4.00;;
23402;SDS011;11874;48.228;11.684;2022-11-15T08:58:35;7.53;;;3.88;;
23402;SDS011;11874;48.228;11.684;2022-11-15T09:01:03;5.05;;;4.05;;
23402;SDS011;11874;48.228;11.684;2022-11-15T09:03:32;4.95;;;3.17;;
23402;SDS011;11874;48.228;11.684;2022-11-15T09:06:00;4.03;;;3.63;;
23402;SDS011;11874;48.228;11.684;2022-11-15T09:08:29;8.50;;;4.15;;
23402;SDS011;11874;48.228;11.684;2022-11-15T09:11:14;4.95;;;3.75;;
23402;SDS011;11874;48.228;11.684;2022-11-15T09:13:46;5.90;;;3.83;;
23402;SDS011;11874;48.228;11.684;2022-11-15T09:16:14;3.47;;;2.85;;
23402;SDS011;11874;48.228;11.684;2022-11-15T09:18:42;4.80;;;3.45;;
23402;SDS011;11874;48.228;11.684;2022-11-15T09:21:10;3.55;;;3.13;;
23402;SDS011;11874;48.228;11.684;2022-11-15T09:23:38;4.88;;;3.28;;
23402;SDS011;11874;48.228;11.684;2022-11-15T09:26:06;4.10;;;3.35;;
23402;SDS011;11874;48.228;11.684;2022-11-15T09:28:36;4.72;;;3.60;;
23402;SDS011;11874;48.228;11.684;2022-11-15T09:31:07;5.30;;;3.90;;
23402;SDS011;11874;48.228;11.684;2022-11-15T09:33:35;4.00;;;3.50;;
23402;SDS011;11874;48.228;11.684;2022-11-15T09:36:04;3.47;;;2.95;;
23402;SDS011;11874;48.228;11.684;2022-11-15T09:38:34;5.45;;;3.33;;
23402;SDS011;11874;48.228;11.684;2022-11-15T09:41:08;4.38;;;3.50;;
23402;SDS011;11874;48.228;11.684;2022-11-15T09:44:02;3.53;;;3.15;;
23402;SDS011;11874;48.228;11.684;2022-11-15T09:46:52;4.32;;;2.85;;
23402;SDS011;11874;48.228;11.684;2022-11-15T09:49:28;4.80;;;3.30;;
23402;SDS011;11874;48.228;11.684;2022-11-15T09:51:57;3.63;;;3.17;;
23402;SDS011;11874;48.228;11.684;2022-11-15T09:54:27;5.30;;;3.38;;
23402;SDS011;11874;48.228;11.684;2022-11-15T09:57:18;5.07;;;2.80;;
23402;SDS011;11874;48.228;11.684;2022-11-15T09:59:55;5.25;;;3.88;;
23402;SDS011;11874;48.228;11.684;2022-11-15T10:02:55;4.30;;;3.58;;
23402;SDS011;11874;48.228;11.684;2022-11-15T10:05:28;9.35;;;4.00;;
23402;SDS011;11874;48.228;11.684;2022-11-15T10:07:59;4.53;;;3.50;;
23402;SDS011;11874;48.228;11.684;2022-11-15T10:10:35;5.22;;;3.90;;
23402;SDS011;11874;48.228;11.684;2022-11-15T10:13:07;6.55;;;3.45;;
23402;SDS011;11874;48.228;11.684;2022-11-15T10:15:44;5.57;;;3.25;;
23402;SDS011;11874;48.228;11.684;2022-11-15T10:18:15;5.60;;;3.75;;
23402;SDS011;11874;48.228;11.684;2022-11-15T10:20:47;5.60;;;3.33;;
23402;SDS011;11874;48.228;11.684;2022-11-15T10:23:17;3.65;;;2.97;;
23402;SDS011;11874;48.228;11.684;2022-11-15T10:25:46;5.68;;;3.15;;
23402;SDS011;11874;48.228;11.684;2022-11-15T10:28:20;4.70;;;2.80;;
23402;SDS011;11874;48.228;11.684;2022-11-15T10:30:52;6.95;;;3.20;;
23402;SDS011;11874;48.228;11.684;2022-11-15T10:33:26;4.70;;;3.23;;
23402;SDS011;11874;48.228;11.684;2022-11-15T10:36:16;5.47;;;3.10;;
23402;SDS011;11874;48.228;11.684;2022-11-15T10:38:51;4.55;;;3.08;;
23402;SDS011;11874;48.228;11.684;2022-11-15T10:41:29;4.82;;;3.00;;
23402;SDS011;11874;48.228;11.684;2022-11-15T10:49:57;3.90;;;3.17;;
23402;SDS011;11874;48.228;11.684;2022-11-15T10:52:26;4.60;;;3.40;;
23402;SDS011;11874;48.228;11.684;2022-11-15T10:54:56;6.18;;;3.70;;
23402;SDS011;11874;48.228;11.684;2022-11-15T10:57:29;6.88;;;4.10;;
23402;SDS011;11874;48.228;11.684;2022-11-15T11:00:00;11.10;;;5.50;;
23402;SDS011;11874;48.228;11.684;2022-11-15T11:02:34;24.90;;;15.10;;
23402;SDS011;11874;48.228;11.684;2022-11-15T11:07:33;11.63;;;7.85;;
23402;SDS011;11874;48.228;11.684;2022-11-15T11:10:04;9.32;;;5.20;;
23402;SDS011;11874;48.228;11.684;2022-11-15T11:13:13;11.95;;;5.55;;
23402;SDS011;11874;48.228;11.684;2022-11-15T11:15:42;10.65;;;4.90;;
23402;SDS011;11874;48.228;11.684;2022-11-15T11:18:17;4.35;;;3.40;;
23402;SDS011;11874;48.228;11.684;2022-11-15T11:20:51;5.10;;;3.20;;
23402;SDS011;11874;48.228;11.684;2022-11-15T11:23:31;4.38;;;3.42;;
23402;SDS011;11874;48.228;11.684;2022-11-15T11:26:14;5.82;;;3.40;;
23402;SDS011;11874;48.228;11.684;2022-11-15T11:28:54;4.97;;;3.38;;
23402;SDS011;11874;48.228;11.684;2022-11-15T11:31:30;4.13;;;3.17;;
23402;SDS011;11874;48.228;11.684;2022-11-15T11:34:09;3.65;;;3.20;;
23402;SDS011;11874;48.228;11.684;2022-11-15T11:36:45;3.90;;;3.08;;
23402;SDS011;11874;48.228;11.684;2022-11-15T11:39:21;4.15;;;3.70;;
23402;SDS011;11874;48.228;11.684;2022-11-15T11:41:59;5.35;;;3.53;;
23402;SDS011;11874;48.228;11.684;2022-11-15T11:44:36;5.95;;;3.83;;
23402;SDS011;11874;48.228;11.684;2022-11-15T11:47:14;5.10;;;3.88;;
23402;SDS011;11874;48.228;11.684;2022-11-15T11:49:51;5.65;;;4.18;;
23402;SDS011;11874;48.228;11.684;2022-11-15T11:52:21;5.22;;;4.30;;
23402;SDS011;11874;48.228;11.684;2022-11-15T11:57:31;4.60;;;3.35;;
23402;SDS011;11874;48.228;11.684;2022-11-15T12:00:12;4.85;;;3.90;;
23402;SDS011;11874;48.228;11.684;2022-11-15T12:02:45;6.82;;;4.25;;
23402;SDS011;11874;48.228;11.684;2022-11-15T12:05:20;5.60;;;4.30;;
23402;SDS011;11874;48.228;11.684;2022-11-15T12:07:54;4.95;;;3.70;;
23402;SDS011;11874;48.228;11.684;2022-11-15T12:10:30;4.47;;;3.90;;
23402;SDS011;11874;48.228;11.684;2022-11-15T12:13:02;5.28;;;3.65;;
23402;SDS011;11874;48.228;11.684;2022-11-15T12:15:36;5.32;;;3.53;;
23402;SDS011;11874;48.228;11.684;2022-11-15T12:18:08;4.47;;;3.97;;
23402;SDS011;11874;48.228;11.684;2022-11-15T12:20:41;8.00;;;4.80;;
23402;SDS011;11874;48.228;11.684;2022-11-15T12:23:17;5.55;;;3.97;;
23402;SDS011;11874;48.228;11.684;2022-11-15T12:25:50;5.28;;;4.10;;
23402;SDS011;11874;48.228;11.684;2022-11-15T12:28:24;4.95;;;4.18;;
23402;SDS011;11874;48.228;11.684;2022-11-15T12:31:03;5.85;;;3.80;;
23402;SDS011;11874;48.228;11.684;2022-11-15T12:33:39;5.03;;;3.25;;
23402;SDS011;11874;48.228;11.684;2022-11-15T12:36:10;4.35;;;3.95;;
23402;SDS011;11874;48.228;11.684;2022-11-15T12:38:57;4.03;;;3.13;;
23402;SDS011;11874;48.228;11.684;2022-11-15T12:41:26;5.43;;;3.40;;
23402;SDS011;11874;48.228;11.684;2022-11-15T12:43:56;3.90;;;3.40;;
23402;SDS011;11874;48.228;11.684;2022-11-15T12:49:42;4.95;;;3.30;;
23402;SDS011;11874;48.228;11.684;2022-11-15T12:52:13;4.40;;;3.50;;
23402;SDS011;11874;48.228;11.684;2022-11-15T12:54:49;3.90;;;3.50;;
23402;SDS011;11874;48.228;11.684;2022-11-15T12:57:29;4.07;;;3.70;;
23402;SDS011;11874;48.228;11.684;2022-11-15T13:00:00;4.93;;;3.80;;
23402;SDS011;11874;48.228;11.684;2022-11-15T13:02:33;4.57;;;3.67;;
23402;SDS011;11874;48.228;11.684;2022-11-15T13:08:38;6.38;;;3.50;;
23402;SDS011;11874;48.228;11.684;2022-11-15T13:17:29;5.65;;;4.00;;
23402;SDS011;11874;48.228;11.684;2022-11-15T13:20:02;4.70;;;4.20;;
23402;SDS011;11874;48.228;11.684;2022-11-15T13:22:45;6.35;;;3.97;;
23402;SDS011;11874;48.228;11.684;2022-11-15T13:25:40;5.43;;;3.92;;
23402;SDS011;11874;48.228;11.684;2022-11-15T13:28:20;5.70;;;4.10;;
23402;SDS011;11874;48.228;11.684;2022-11-15T13:30:50;5.80;;;3.55;;
23402;SDS011;11874;48.228;11.684;2022-11-15T13:33:20;4.45;;;3.88;;
23402;SDS011;11874;48.228;11.684;2022-11-15T13:35:52;4.33;;;3.83;;
23402;SDS011;11874;48.228;11.684;2022-11-15T13:38:27;5.20;;;4.30;;
23402;SDS011;11874;48.228;11.684;2022-11-15T13:40:58;5.50;;;4.10;;
23402;SDS011;11874;48.228;11.684;2022-11-15T13:43:28;5.53;;;3.92;;
23402;SDS011;11874;48.228;11.684;2022-11-15T13:48:38;4.65;;;3.53;;
23402;SDS011;11874;48.228;11.684;2022-11-15T13:51:06;5.45;;;3.97;;
23402;SDS011;11874;48.228;11.684;2022-11-15T13:53:41;4.80;;;3.80;;
23402;SDS011;11874;48.228;11.684;2022-11-15T13:56:14;4.93;;;4.05;;
23402;SDS011;11874;48.228;11.684;2022-11-15T13:58:43;6.32;;;4.10;;
23402;SDS011;11874;48.228;11.684;2022-11-15T14:01:14;4.50;;;4.07;;
23402;SDS011;11874;48.228;11.684;2022-11-15T14:03:47;4.47;;;4.07;;
23402;SDS011;11874;48.228;11.684;2022-11-15T14:06:18;4.47;;;3.95;;
23402;SDS011;11874;48.228;11.684;2022-11-15T14:08:58;5.38;;;3.80;;
23402;SDS011;11874;48.228;11.684;2022-11-15T14:11:30;4.85;;;4.25;;
23402;SDS011;11874;48.228;11.684;2022-11-15T14:14:11;6.13;;;4.28;;
23402;SDS011;11874;48.228;11.684;2022-11-15T14:16:42;8.13;;;4.57;;
23402;SDS011;11874;48.228;11.684;2022-11-15T14:19:11;7.88;;;4.65;;
23402;SDS011;11874;48.228;11.684;2022-11-15T14:22:16;6.10;;;5.10;;
23402;SDS011;11874;48.228;11.684;2022-11-15T14:24:47;4.45;;;4.05;;
23402;SDS011;11874;48.228;11.684;2022-11-15T14:27:31;5.10;;;4.53;;
23402;SDS011;11874;48.228;11.684;2022-11-15T14:30:00;5.57;;;4.75;;
23402;SDS011;11874;48.228;11.684;2022-11-15T14:32:28;5.25;;;4.55;;
23402;SDS011;11874;48.228;11.684;2022-11-15T14:35:09;8.38;;;5.20;;
23402;SDS011;11874;48.228;11.684;2022-11-15T14:37:39;4.95;;;4.45;;
23402;SDS011;11874;48.228;11.684;2022-11-15T14:40:08;5.38;;;4.68;;
23402;SDS011;11874;48.228;11.684;2022-11-15T14:42:41;6.75;;;4.95;;
23402;SDS011;11874;48.228;11.684;2022-11-15T14:45:11;7.95;;;4.50;;
23402;SDS011;11874;48.228;11.684;2022-11-15T14:47:41;6.33;;;4.67;;
23402;SDS011;11874;48.228;11.684;2022-11-15T14:50:12;6.22;;;4.70;;
23402;SDS011;11874;48.228;11.684;2022-11-15T14:52:42;7.53;;;4.53;;
23402;SDS011;11874;48.228;11.684;2022-11-15T14:55:12;5.05;;;4.55;;
23402;SDS011;11874;48.228;11.684;2022-11-15T14:57:46;9.70;;;8.48;;
23402;SDS011;11874;48.228;11.684;2022-11-15T15:00:14;16.73;;;9.98;;
23402;SDS011;11874;48.228;11.684;2022-11-15T15:02:43;10.45;;;8.52;;
23402;SDS011;11874;48.228;11.684;2022-11-15T15:05:13;13.75;;;6.03;;
23402;SDS011;11874;48.228;11.684;2022-11-15T15:07:42;6.95;;;5.78;;
23402;SDS011;11874;48.228;11.684;2022-11-15T15:10:11;8.52;;;6.00;;
23402;SDS011;11874;48.228;11.684;2022-11-15T15:13:01;6.57;;;5.18;;
23402;SDS011;11874;48.228;11.684;2022-11-15T15:15:31;7.10;;;5.05;;
23402;SDS011;11874;48.228;11.684;2022-11-15T15:18:00;7.72;;;6.35;;
23402;SDS011;11874;48.228;11.684;2022-11-15T15:20:28;11.50;;;6.50;;
23402;SDS011;11874;48.228;11.684;2022-11-15T15:22:56;5.25;;;4.38;;
23402;SDS011;11874;48.228;11.684;2022-11-15T15:25:26;7.00;;;5.78;;
23402;SDS011;11874;48.228;11.684;2022-11-15T15:27:56;5.63;;;4.65;;
23402;SDS011;11874;48.228;11.684;2022-11-15T15:30:27;5.88;;;4.65;;
23402;SDS011;11874;48.228;11.684;2022-11-15T15:32:56;6.28;;;4.88;;
23402;SDS011;11874;48.228;11.684;2022-11-15T15:35:24;8.00;;;5.38;;
23402;SDS011;11874;48.228;11.684;2022-11-15T15:37:56;7.25;;;4.80;;